createdAt,value
2022-08-22T00:02:09.101Z,26.73
2022-08-22T00:03:02.493Z,27.60
2022-08-22T00:03:08.825Z,26.92
2022-08-22T00:04:41.476Z,26.73
2022-08-22T00:07:12.031Z,26.73
2022-08-22T00:09:42.629Z,26.73
2022-08-22T00:12:18.399Z,26.72
2022-08-22T00:14:48.719Z,26.70
2022-08-22T00:17:24.566Z,26.70
2022-08-22T00:19:54.688Z,26.70
2022-08-22T00:22:24.352Z,26.70
2022-08-22T00:24:53.742Z,26.68
2022-08-22T00:27:22.401Z,26.68
2022-08-22T00:29:53.700Z,26.70
2022-08-22T00:32:25.002Z,26.69
2022-08-22T00:34:55.076Z,26.68
2022-08-22T00:37:24.483Z,26.68
2022-08-22T00:39:53.802Z,26.68
2022-08-22T00:42:32.109Z,26.67
2022-08-22T00:45:37.301Z,26.65
2022-08-22T00:48:24.612Z,26.64
2022-08-22T00:51:03.072Z,26.64
2022-08-22T00:53:50.225Z,26.64
2022-08-22T00:56:27.273Z,26.61
2022-08-22T00:59:11.996Z,26.62
2022-08-22T01:01:53.198Z,26.60
2022-08-22T01:04:35.516Z,26.60
2022-08-22T01:07:11.015Z,26.60
2022-08-22T01:09:44.027Z,26.60
2022-08-22T01:12:20.685Z,26.58
2022-08-22T01:14:50.476Z,26.60
2022-08-22T01:17:36.237Z,26.58
2022-08-22T01:20:50.835Z,26.58
2022-08-22T01:23:43.985Z,26.54
2022-08-22T01:26:42.696Z,26.56
2022-08-22T01:29:28.266Z,26.52
2022-08-22T01:32:30.587Z,26.53
2022-08-22T01:35:06.629Z,26.53
2022-08-22T01:38:00.330Z,26.52
2022-08-22T01:40:54.006Z,26.49
2022-08-22T01:43:59.172Z,26.50
2022-08-22T01:46:27.222Z,26.48
2022-08-22T01:48:56.771Z,26.47
2022-08-22T01:51:26.913Z,26.48
2022-08-22T01:54:03.751Z,26.48
2022-08-22T01:56:33.409Z,26.48
2022-08-22T01:59:03.463Z,26.45
2022-08-22T02:01:37.910Z,26.45
2022-08-22T02:04:20.016Z,26.41
2022-08-22T02:06:52.450Z,26.39
2022-08-22T02:09:27.580Z,26.37
2022-08-22T02:11:56.707Z,26.39
2022-08-22T02:14:33.472Z,26.37
2022-08-22T02:17:14.841Z,26.36
2022-08-22T02:19:48.358Z,26.35
2022-08-22T02:22:26.560Z,26.35
2022-08-22T02:25:00.138Z,26.33
2022-08-22T02:27:34.298Z,26.34
2022-08-22T02:30:04.853Z,26.32
2022-08-22T02:32:36.381Z,26.32
2022-08-22T02:35:07.579Z,26.31
2022-08-22T02:37:39.489Z,26.30
2022-08-22T02:40:11.657Z,26.30
2022-08-22T02:42:41.285Z,26.30
2022-08-22T02:45:16.784Z,26.29
2022-08-22T02:47:48.137Z,26.30
2022-08-22T02:50:18.671Z,26.29
2022-08-22T02:52:57.292Z,26.26
2022-08-22T02:55:33.234Z,26.29
2022-08-22T02:58:04.044Z,26.27
2022-08-22T03:00:43.917Z,26.26
2022-08-22T03:03:17.766Z,26.25
2022-08-22T03:05:52.227Z,26.24
2022-08-22T03:08:24.707Z,26.25
2022-08-22T03:10:58.067Z,26.23
2022-08-22T03:13:26.770Z,26.24
2022-08-22T03:15:55.974Z,26.23
2022-08-22T03:18:26.036Z,26.24
2022-08-22T03:20:55.449Z,26.27
2022-08-22T03:23:32.666Z,26.25
2022-08-22T03:26:07.432Z,26.23
2022-08-22T03:28:37.265Z,26.22
2022-08-22T03:31:12.579Z,26.22
2022-08-22T03:33:40.024Z,26.23
2022-08-22T03:36:11.149Z,26.19
2022-08-22T03:38:46.597Z,26.20
2022-08-22T03:41:53.189Z,26.18
2022-08-22T03:44:45.034Z,26.18
2022-08-22T03:47:23.030Z,26.19
2022-08-22T03:50:14.738Z,26.22
2022-08-22T03:53:15.426Z,26.19
2022-08-22T03:56:09.796Z,26.15
2022-08-22T03:58:59.933Z,26.17
2022-08-22T04:01:40.117Z,26.14
2022-08-22T04:04:39.376Z,26.13
2022-08-22T04:07:42.727Z,26.11
2022-08-22T04:10:20.880Z,26.12
2022-08-22T04:12:56.788Z,26.11
2022-08-22T04:15:47.291Z,26.11
2022-08-22T04:18:49.993Z,26.11
2022-08-22T04:22:08.448Z,26.10
2022-08-22T04:24:52.249Z,26.08
2022-08-22T04:27:23.259Z,26.07
2022-08-22T04:29:58.540Z,26.06
2022-08-22T04:32:27.910Z,26.05
2022-08-22T04:34:57.250Z,26.06
2022-08-22T04:37:29.771Z,26.07
2022-08-22T04:39:58.662Z,26.11
2022-08-22T04:42:32.601Z,26.11
2022-08-22T04:45:05.002Z,26.12
2022-08-22T04:47:34.665Z,26.12
2022-08-22T04:50:04.739Z,26.12
2022-08-22T04:52:37.510Z,26.12
2022-08-22T04:55:09.183Z,26.11
2022-08-22T04:57:41.906Z,26.11
2022-08-22T05:00:12.082Z,26.10
2022-08-22T05:02:41.008Z,26.10
2022-08-22T05:05:13.676Z,26.10
2022-08-22T05:07:43.548Z,26.09
2022-08-22T05:10:13.622Z,26.08
2022-08-22T05:12:42.543Z,26.07
2022-08-22T05:15:16.031Z,26.08
2022-08-22T05:17:52.007Z,26.08
2022-08-22T05:20:21.943Z,26.09
2022-08-22T05:22:51.145Z,26.08
2022-08-22T05:25:20.775Z,26.09
2022-08-22T05:27:49.860Z,26.08
2022-08-22T05:30:23.815Z,26.09
2022-08-22T05:32:52.577Z,26.10
2022-08-22T05:35:21.259Z,26.12
2022-08-22T05:37:49.711Z,26.12
2022-08-22T05:40:19.679Z,26.11
2022-08-22T05:42:47.168Z,26.10
2022-08-22T05:45:14.631Z,26.11
2022-08-22T05:47:43.957Z,26.12
2022-08-22T05:50:13.355Z,26.14
2022-08-22T05:52:45.837Z,26.11
2022-08-22T05:55:21.048Z,26.11
2022-08-22T05:57:49.654Z,26.08
2022-08-22T06:00:20.368Z,26.08
2022-08-22T06:02:55.297Z,26.09
2022-08-22T06:05:25.682Z,26.10
2022-08-22T06:07:54.209Z,26.11
2022-08-22T06:10:23.625Z,26.10
2022-08-22T06:12:57.540Z,26.11
2022-08-22T06:15:29.763Z,26.12
2022-08-22T06:18:00.914Z,26.12
2022-08-22T06:20:31.048Z,26.14
2022-08-22T06:23:01.962Z,26.14
2022-08-22T06:25:31.076Z,26.15
2022-08-22T06:27:58.626Z,26.17
2022-08-22T06:30:27.437Z,26.19
2022-08-22T06:33:00.191Z,26.20
2022-08-22T06:35:51.168Z,26.20
2022-08-22T06:38:19.854Z,26.22
2022-08-22T06:40:47.425Z,26.23
2022-08-22T06:43:15.368Z,26.24
2022-08-22T06:45:42.811Z,26.22
2022-08-22T06:48:15.413Z,26.22
2022-08-22T06:50:44.702Z,26.23
2022-08-22T06:53:13.560Z,26.25
2022-08-22T06:55:42.952Z,26.21
2022-08-22T06:58:13.785Z,26.23
2022-08-22T07:00:42.112Z,26.22
2022-08-22T07:03:12.181Z,26.24
2022-08-22T07:05:41.301Z,26.27
2022-08-22T07:08:12.031Z,26.27
2022-08-22T07:10:41.513Z,26.25
2022-08-22T07:13:14.020Z,26.26
2022-08-22T07:15:42.207Z,26.27
2022-08-22T07:18:16.365Z,26.26
2022-08-22T07:20:45.586Z,26.26
2022-08-22T07:23:24.175Z,26.27
2022-08-22T07:25:54.095Z,26.26
2022-08-22T07:28:37.134Z,26.26
2022-08-22T07:31:18.589Z,26.27
2022-08-22T07:33:50.750Z,26.28
2022-08-22T07:36:25.712Z,26.28
2022-08-22T07:39:04.526Z,26.28
2022-08-22T07:41:35.563Z,26.26
2022-08-22T07:44:07.328Z,26.27
2022-08-22T07:46:36.606Z,26.27
2022-08-22T07:49:09.600Z,26.30
2022-08-22T07:51:43.627Z,26.30
2022-08-22T07:54:13.640Z,26.30
2022-08-22T07:56:43.174Z,26.31
2022-08-22T07:59:12.998Z,26.31
2022-08-22T08:01:45.211Z,26.31
2022-08-22T08:04:13.991Z,26.33
2022-08-22T08:06:41.457Z,26.33
2022-08-22T08:09:09.811Z,26.32
2022-08-22T08:11:40.872Z,26.33
2022-08-22T08:14:08.580Z,26.35
2022-08-22T08:16:43.613Z,26.34
2022-08-22T08:19:11.360Z,26.32
2022-08-22T08:21:39.748Z,26.34
2022-08-22T08:24:08.268Z,26.33
2022-08-22T08:26:59.975Z,26.32
2022-08-22T08:29:27.007Z,26.32
2022-08-22T08:31:54.468Z,26.31
2022-08-22T08:34:23.393Z,26.32
2022-08-22T08:36:52.199Z,26.32
2022-08-22T08:39:22.902Z,26.30
2022-08-22T08:42:17.020Z,26.31
2022-08-22T08:45:16.805Z,26.31
2022-08-22T08:50:51.321Z,26.25
2022-08-22T08:53:41.197Z,26.23
2022-08-22T08:56:19.633Z,26.26
2022-08-22T08:58:51.069Z,26.25
2022-08-22T09:01:27.586Z,26.28
2022-08-22T09:04:27.129Z,26.26
2022-08-22T09:07:06.482Z,26.24
2022-08-22T09:09:44.471Z,26.24
2022-08-22T09:12:32.327Z,26.24
2022-08-22T09:15:38.248Z,26.21
2022-08-22T09:18:26.909Z,26.20
2022-08-22T09:21:11.242Z,26.20
2022-08-22T09:24:05.178Z,26.25
2022-08-22T09:26:38.573Z,26.28
2022-08-22T09:29:11.592Z,26.30
2022-08-22T09:31:48.339Z,26.33
2022-08-22T09:34:24.172Z,26.34
2022-08-22T09:37:04.409Z,26.25
2022-08-22T09:39:34.625Z,26.17
2022-08-22T09:40:16.136Z,26.31
2022-08-22T09:42:06.797Z,26.08
2022-08-22T09:44:39.955Z,26.06
2022-08-22T09:47:13.803Z,26.05
2022-08-22T09:49:48.990Z,26.09
2022-08-22T09:52:33.849Z,26.17
2022-08-22T09:55:08.625Z,26.23
2022-08-22T09:57:38.274Z,26.26
2022-08-22T10:00:30.837Z,26.29
2022-08-22T10:03:05.404Z,26.30
2022-08-22T10:05:43.992Z,26.32
2022-08-22T10:08:15.214Z,26.34
2022-08-22T10:11:01.966Z,26.33
2022-08-22T10:13:37.235Z,26.31
2022-08-22T10:16:21.379Z,26.33
2022-08-22T10:18:55.448Z,26.35
2022-08-22T10:21:32.204Z,26.40
2022-08-22T10:24:02.611Z,26.41
2022-08-22T10:26:38.749Z,26.28
2022-08-22T10:29:09.967Z,26.21
2022-08-22T10:31:41.148Z,26.25
2022-08-22T10:34:28.509Z,26.34
2022-08-22T10:37:00.592Z,26.36
2022-08-22T10:39:32.531Z,26.38
2022-08-22T10:42:07.589Z,26.39
2022-08-22T10:44:39.864Z,26.41
2022-08-22T10:47:10.065Z,26.42
2022-08-22T10:49:41.200Z,26.36
2022-08-22T10:52:16.469Z,26.34
2022-08-22T10:54:48.640Z,26.38
2022-08-22T10:57:22.539Z,26.22
2022-08-22T10:59:53.291Z,26.07
2022-08-22T11:02:30.396Z,26.12
2022-08-22T11:05:13.801Z,26.15
2022-08-22T11:07:50.024Z,26.19
2022-08-22T11:10:24.667Z,26.17
2022-08-22T11:12:58.997Z,26.16
2022-08-22T11:15:45.503Z,26.23
2022-08-22T11:18:18.633Z,26.28
2022-08-22T11:20:53.804Z,26.09
2022-08-22T11:23:26.829Z,25.97
2022-08-22T11:25:57.224Z,25.95
2022-08-22T11:28:39.788Z,25.96
2022-08-22T11:31:11.509Z,26.05
2022-08-22T11:33:47.160Z,26.14
2022-08-22T11:36:27.392Z,26.20
2022-08-22T11:39:01.468Z,26.09
2022-08-22T11:41:31.331Z,26.14
2022-08-22T11:44:01.325Z,26.19
2022-08-22T11:46:32.337Z,26.10
2022-08-22T11:49:32.625Z,26.07
2022-08-22T11:52:18.624Z,26.23
2022-08-22T11:55:01.105Z,26.29
2022-08-22T11:57:32.062Z,26.33
2022-08-22T12:00:05.910Z,26.37
2022-08-22T12:02:39.183Z,26.41
2022-08-22T12:05:11.748Z,26.37
2022-08-22T12:07:53.339Z,26.30
2022-08-22T12:10:21.457Z,26.26
2022-08-22T12:12:56.004Z,26.21
2022-08-22T12:15:25.203Z,26.20
2022-08-22T12:18:31.395Z,26.25
2022-08-22T12:21:16.437Z,26.35
2022-08-22T12:24:11.196Z,26.41
2022-08-22T12:26:53.793Z,26.45
2022-08-22T12:29:33.994Z,26.48
2022-08-22T12:32:38.569Z,26.53
2022-08-22T12:35:18.497Z,26.57
2022-08-22T12:37:52.787Z,26.54
2022-08-22T12:40:27.188Z,26.50
2022-08-22T12:43:03.591Z,26.44
2022-08-22T12:45:46.009Z,26.33
2022-08-22T12:48:23.837Z,26.36
2022-08-22T12:50:52.765Z,26.43
2022-08-22T12:53:44.456Z,26.36
2022-08-22T12:56:18.625Z,26.37
2022-08-22T12:58:58.432Z,26.43
2022-08-22T13:01:34.096Z,26.44
2022-08-22T13:04:03.477Z,26.43
2022-08-22T13:06:57.782Z,26.30
2022-08-22T13:09:30.633Z,26.28
2022-08-22T13:12:04.280Z,26.33
2022-08-22T13:14:31.949Z,26.38
2022-08-22T13:17:01.322Z,26.42
2022-08-22T13:19:55.520Z,26.48
2022-08-22T13:22:27.213Z,26.48
2022-08-22T13:24:59.094Z,26.45
2022-08-22T13:27:35.615Z,26.30
2022-08-22T13:30:04.888Z,26.11
2022-08-22T13:32:34.683Z,26.11
2022-08-22T13:35:02.644Z,26.12
2022-08-22T13:37:32.614Z,26.07
2022-08-22T13:40:02.137Z,25.95
2022-08-22T13:42:31.541Z,25.97
2022-08-22T13:45:02.426Z,26.03
2022-08-22T13:47:32.297Z,26.03
2022-08-22T13:50:07.376Z,26.16
2022-08-22T13:52:38.219Z,26.24
2022-08-22T13:55:12.195Z,26.28
2022-08-22T13:57:42.719Z,26.34
2022-08-22T14:00:32.804Z,26.32
2022-08-22T14:03:05.722Z,26.29
2022-08-22T14:05:39.437Z,26.31
2022-08-22T14:08:13.001Z,26.34
2022-08-22T14:10:42.526Z,26.35
2022-08-22T14:13:41.641Z,26.36
2022-08-22T14:16:10.883Z,26.39
2022-08-22T14:18:48.952Z,26.34
2022-08-22T14:21:20.132Z,26.30
2022-08-22T14:23:48.401Z,26.26
2022-08-22T14:26:32.808Z,26.30
2022-08-22T14:29:02.409Z,26.33
2022-08-22T14:31:29.909Z,26.36
2022-08-22T14:34:00.802Z,26.22
2022-08-22T14:36:30.974Z,26.24
2022-08-22T14:39:01.039Z,26.32
2022-08-22T14:41:52.537Z,26.36
2022-08-22T14:44:19.879Z,26.39
2022-08-22T14:46:52.221Z,26.36
2022-08-22T14:49:29.477Z,26.37
2022-08-22T14:52:00.998Z,26.39
2022-08-22T14:54:29.349Z,26.38
2022-08-22T14:56:56.812Z,26.39
2022-08-22T14:59:33.285Z,26.42
2022-08-22T15:02:02.783Z,26.31
2022-08-22T15:04:35.079Z,26.30
2022-08-22T15:07:02.981Z,26.35
2022-08-22T15:09:32.955Z,26.39
2022-08-22T15:12:01.694Z,26.35
2022-08-22T15:14:44.862Z,26.39
2022-08-22T15:17:40.085Z,26.41
2022-08-22T15:20:27.655Z,26.38
2022-08-22T15:22:55.858Z,26.38
2022-08-22T15:25:24.679Z,26.33
2022-08-22T15:27:54.843Z,26.35
2022-08-22T15:30:34.186Z,26.17
2022-08-22T15:33:09.371Z,26.18
2022-08-22T15:35:39.216Z,26.20
2022-08-22T15:38:08.144Z,26.12
2022-08-22T15:40:40.895Z,26.04
2022-08-22T15:43:13.388Z,25.99
2022-08-22T15:45:42.407Z,25.91
2022-08-22T15:48:13.372Z,25.95
2022-08-22T15:50:58.193Z,26.10
2022-08-22T15:53:26.896Z,26.17
2022-08-22T15:56:22.810Z,26.17
2022-08-22T15:58:53.108Z,26.16
2022-08-22T16:01:22.343Z,26.21
2022-08-22T16:03:54.426Z,26.12
2022-08-22T16:06:45.038Z,26.17
2022-08-22T16:09:32.639Z,26.22
2022-08-22T16:12:00.117Z,26.25
2022-08-22T16:14:46.271Z,26.23
2022-08-22T16:17:44.879Z,26.18
2022-08-22T16:20:49.894Z,26.20
2022-08-22T16:23:18.636Z,26.17
2022-08-22T16:26:07.135Z,26.15
2022-08-22T16:28:57.401Z,26.03
2022-08-22T16:31:27.734Z,26.11
2022-08-22T16:33:55.651Z,26.18
2022-08-22T16:36:41.648Z,26.18
2022-08-22T16:39:13.486Z,26.19
2022-08-22T16:41:42.328Z,26.18
2022-08-22T16:44:40.002Z,26.19
2022-08-22T16:47:09.650Z,26.19
2022-08-22T16:49:40.053Z,26.13
2022-08-22T16:52:55.136Z,26.11
2022-08-22T16:55:58.945Z,26.12
2022-08-22T16:58:56.186Z,26.11
2022-08-22T17:01:31.111Z,26.01
2022-08-22T17:04:00.780Z,26.00
2022-08-22T17:06:36.804Z,26.02
2022-08-22T17:09:16.277Z,25.88
2022-08-22T17:11:47.774Z,25.79
2022-08-22T17:14:23.615Z,25.83
2022-08-22T17:16:58.348Z,25.78
2022-08-22T17:19:32.354Z,25.90
2022-08-22T17:22:01.246Z,25.97
2022-08-22T17:24:34.191Z,25.99
2022-08-22T17:27:08.731Z,26.04
2022-08-22T17:29:53.624Z,26.00
2022-08-22T17:32:24.229Z,25.90
2022-08-22T17:34:57.030Z,25.86
2022-08-22T17:37:32.197Z,25.90
2022-08-22T17:40:22.527Z,25.77
2022-08-22T17:43:00.581Z,25.73
2022-08-22T17:45:34.369Z,25.76
2022-08-22T17:48:05.274Z,25.82
2022-08-22T17:50:35.412Z,25.79
2022-08-22T17:53:04.302Z,25.87
2022-08-22T17:55:33.703Z,25.91
2022-08-22T17:58:03.866Z,25.79
2022-08-22T18:00:34.332Z,25.84
2022-08-22T18:03:06.690Z,25.90
2022-08-22T18:05:37.377Z,25.91
2022-08-22T18:08:37.548Z,25.95
2022-08-22T18:10:59.948Z,25.96
2022-08-22T18:13:35.069Z,25.98
2022-08-22T18:29:28.698Z,25.94
2022-08-22T18:37:51.091Z,25.81
2022-08-22T18:41:33.386Z,25.89
2022-08-22T19:21:42.817Z,25.93
2022-08-22T19:24:13.231Z,25.94
2022-08-22T19:26:43.374Z,25.95
2022-08-22T19:29:48.306Z,26.01
2022-08-22T19:32:49.880Z,26.01
2022-08-22T19:35:20.485Z,26.02
2022-08-22T19:37:53.552Z,26.02
2022-08-22T19:41:03.848Z,26.04
2022-08-22T19:43:36.762Z,26.04
2022-08-22T19:46:06.675Z,26.04
2022-08-22T19:48:43.447Z,26.05
2022-08-22T19:51:13.782Z,26.04
2022-08-22T19:53:48.527Z,26.05
2022-08-22T19:56:23.884Z,26.05
2022-08-22T19:58:57.219Z,26.04
2022-08-22T20:01:35.325Z,26.03
2022-08-22T20:04:05.623Z,26.02
2022-08-22T20:06:44.453Z,26.01
2022-08-22T20:09:20.431Z,26.03
2022-08-22T20:11:50.027Z,26.02
2022-08-22T20:14:20.047Z,26.02
2022-08-22T20:17:04.027Z,26.04
2022-08-22T20:20:16.378Z,26.04
2022-08-22T20:22:36.534Z,26.02
2022-08-22T20:25:16.991Z,26.02
2022-08-22T20:28:03.096Z,26.01
2022-08-22T20:30:32.054Z,26.02
2022-08-22T20:33:01.894Z,26.04
2022-08-22T20:35:35.402Z,26.02
2022-08-22T20:38:07.074Z,26.02
2022-08-22T20:40:56.390Z,26.00
2022-08-22T20:43:28.387Z,26.01
2022-08-22T20:46:01.128Z,26.01
2022-08-22T20:48:33.247Z,26.01
2022-08-22T20:51:03.900Z,25.99
2022-08-22T20:53:31.378Z,25.99
2022-08-22T20:56:00.124Z,26.00
2022-08-22T20:58:29.571Z,26.01
2022-08-22T21:01:00.063Z,26.00
2022-08-22T21:03:33.836Z,26.00
2022-08-22T21:06:09.792Z,25.99
2022-08-22T21:08:37.215Z,26.00
2022-08-22T21:11:24.353Z,26.00
2022-08-22T21:13:51.835Z,26.02
2022-08-22T21:16:20.396Z,26.00
2022-08-22T21:18:49.434Z,26.00
2022-08-22T21:21:20.004Z,26.01
2022-08-22T21:23:48.439Z,25.99
2022-08-22T21:26:22.755Z,26.00
2022-08-22T21:28:56.206Z,26.00
2022-08-22T21:31:25.630Z,26.00
2022-08-22T21:33:53.717Z,25.99
2022-08-22T21:36:22.534Z,25.98
2022-08-22T21:38:51.396Z,25.99
2022-08-22T21:41:26.728Z,25.98
2022-08-22T21:43:54.280Z,25.98
2022-08-22T21:46:26.042Z,25.99
2022-08-22T21:49:01.923Z,25.97
2022-08-22T21:51:32.652Z,25.96
2022-08-22T21:54:42.924Z,25.98
2022-08-22T21:57:35.509Z,25.96
2022-08-22T22:00:05.078Z,25.97
2022-08-22T22:02:40.563Z,25.98
2022-08-22T22:05:11.716Z,25.95
2022-08-22T22:07:39.520Z,25.96
2022-08-22T22:10:08.357Z,25.96
2022-08-22T22:12:39.313Z,25.96
2022-08-22T22:15:07.554Z,25.96
2022-08-22T22:17:34.983Z,25.96
2022-08-22T22:20:02.565Z,25.96
2022-08-22T22:22:30.007Z,25.99
2022-08-22T22:24:57.472Z,26.02
2022-08-22T22:27:25.089Z,26.04
2022-08-22T22:29:53.846Z,26.05
2022-08-22T22:32:21.271Z,26.04
2022-08-22T22:34:48.704Z,26.05
2022-08-22T22:37:16.141Z,26.07
2022-08-22T22:39:43.661Z,26.07
2022-08-22T22:42:11.186Z,26.05
2022-08-22T22:44:38.616Z,26.05
2022-08-22T22:47:07.461Z,26.07
2022-08-22T22:49:34.890Z,26.08
2022-08-22T22:52:02.342Z,26.06
2022-08-22T22:54:30.716Z,26.06
2022-08-22T22:57:01.946Z,26.04
2022-08-22T22:59:29.367Z,26.05
2022-08-22T23:02:01.306Z,26.06
2022-08-22T23:04:30.285Z,26.06
2022-08-22T23:06:57.761Z,26.07
2022-08-22T23:09:37.944Z,26.07
2022-08-22T23:12:06.714Z,26.05
2022-08-22T23:14:34.174Z,26.05
2022-08-22T23:17:01.605Z,26.03
2022-08-22T23:19:30.380Z,26.03
2022-08-22T23:21:58.521Z,26.02
2022-08-22T23:24:26.055Z,26.02
2022-08-22T23:26:53.504Z,26.04
2022-08-22T23:29:20.931Z,26.02
2022-08-22T23:31:50.497Z,26.02
2022-08-22T23:34:19.143Z,26.01
2022-08-22T23:36:47.994Z,26.00
2022-08-22T23:39:15.739Z,26.00
2022-08-22T23:41:43.269Z,26.01
2022-08-22T23:44:13.728Z,26.03
2022-08-22T23:46:41.425Z,26.04
2022-08-22T23:49:08.855Z,26.04
2022-08-22T23:51:36.408Z,26.03
2022-08-22T23:54:05.433Z,26.02
2022-08-22T23:56:33.850Z,26.02
2022-08-22T23:59:01.802Z,26.04
